Het weer levert geen direct gevaar op.    Er zijn geen waarschuwingen afgegeven.


Onweer radar Meer informatie blitzortung!


Regen radar Meer informatie rain snow radar


Bezoek onze andere website:

Template documentation
and downloads

And another site



Select another period ( hide this area )

Eenheden Periode Custom range Directly to
Metrisch Engels Beide
Dagelijkse Wekelijkse Maandelijkse Jaarlijkse
use both date-selectors for a custom range
previous Dag
With this date

WeatherUnderground graphs for this period ( click here )


Dagelijkse Samenvatting Woensdag 26 februari 2020
Tijd Temp. ( °C ) Dew pt. ( °C ) Wind ( km/h ) van Windvlaag ( km/h ) Luchtdruk ( hPa ) Humid.( % ) Rainrate ( cm )
Hoog7,2 4,1 32,2 Westen ( 687/1966 ) 21,1 998,7 94 2,60
Gemiddeld4,2 2,6 11,8 Westen #40/167 6,5 993,6 89 1,60
Laag2,5 1,5 -   0,0 990,5 79 -
Dagelijkse Tabular details for Woensdag 26 februari 2020
Tijd Temp. ( °C ) Dew pt. ( °C ) Wind ( km/h ) van Windvlaag ( km/h ) Luchtdruk ( hPa ) Humid.( % ) Rainrate ( cm )
00:00 4,1 2,7 6,4 ZZW 2,3 990,9 91 0,20
00:05 4,1 2,7 5,6 ZZW 3,9 990,9 91 0,40
00:10 4,1 2,7 1,9 ZZW 0,2 990,8 91 0,60
00:15 4,1 2,7 3,7 ZZW 1,0 990,8 91 0,80
00:20 4,1 2,7 5,6 ZZW 2,7 990,8 91 0,80
00:25 4,1 2,7 3,7 ZZW 1,6 990,7 91 1,00
00:30 4,1 2,7 5,6 ZZW 2,7 990,7 91 1,20
00:35 4,0 2,7 1,9 ZZW 0,2 990,7 91 1,40
00:40 4,0 2,7 3,7 ZZW 1,8 990,7 91 1,60
00:45 3,9 2,8 1,9 ZZO 0,5 990,8 92 -
00:50 3,8 2,7 3,7 Zuiden 2,3 990,9 92 0,20
00:55 3,7 2,3   Kalm   990,8 91 0,60
01:00 3,5 2,2 5,6 Zuiden 2,1 990,8 91 2,60
01:05 3,3 2,0 1,9 ZZO 0,2 990,7 91 2,60
01:10 3,3 2,1 5,6 ZZO 3,2 990,6 92 2,40
01:15 3,3 2,1 3,7 ZZO 1,9 990,5 92 2,20
01:20 3,3 2,1 1,9 ZZO 0,2 990,7 92 2,20
01:25 3,3 2,1 6,4 ZZO 1,6 990,6 92 2,00
01:30 3,3 2,2 5,6 ZZO 4,8 990,7 92 2,00
01:35 3,4 2,2 3,7 ZZO 2,6 990,8 92 1,80
01:40 3,4 2,2 7,4 ZZO 2,1 990,6 92 1,60
01:45 3,4 2,2 3,7 ZZO 1,4 990,6 92 1,20
01:50 3,4 2,4 1,9 ZZO 0,5 990,5 93 1,00
01:55 3,4 2,4 1,9 ZZO 0,2 990,6 93 0,60
02:00 3,3 2,3 5,6 ZZO 1,8 990,7 93 0,40
02:05 3,4 2,4 3,7 ZZO 1,6 990,5 93 0,20
02:10 3,3 2,3 1,9 ZZO 0,5 990,5 93 0,20
02:15 3,3 2,3 5,6 ZZO 2,1 990,5 93 0,20
02:20 3,3 2,3 5,6 ZZO 1,8 990,5 93 0,20
02:25 3,3 2,3 5,6 ZZO 1,9 990,6 93 0,20
02:30 3,2 2,2 5,6 ZZO 3,4 990,7 93 -
02:35 3,2 2,2 5,6 ZO 2,7 990,7 93 -
02:40 3,2 2,2 3,7 ZO 1,3 990,8 93 -
02:45 3,2 2,3 1,9 ZO 0,2 990,8 94 -
02:50 3,2 2,3 9,3 WNW 5,0 990,9 94 0,20
02:55 3,0 2,0 5,6 WZW 2,4 990,8 93 0,60
03:00 2,9 1,9 5,6 NW 2,1 990,9 93 0,80
03:05 2,8 1,8 13,0 NNW 4,3 991,0 93 1,00
03:10 2,6 1,6 7,4 WNW 3,4 991,0 93 1,20
03:15 2,5 1,5 9,3 NW 3,4 991,0 93 1,40
03:20 2,5 1,5 5,6 WNW 3,5 990,9 93 1,60
03:25 2,5 1,5 9,3 NW 5,0 990,9 93 1,80
03:30 2,6 1,6 5,6 NW 2,7 990,8 93 2,00
03:35 2,6 1,6 5,6 NW 2,3 990,8 93 2,00
03:40 2,7 1,7 1,9 NW 0,2 990,8 93 2,00
03:45 2,8 1,9 5,6 NW 2,3 990,8 94 2,00
03:50 2,8 1,9 5,6 NW 2,3 990,8 94 1,80
03:55 2,8 1,8 7,4 Noorden 3,5 990,9 93 1,40
04:00 2,9 1,9 9,3 WNW 2,9 991,1 93 1,20
04:05 2,9 1,9 3,7 Westen 1,3 991,1 93 1,00
04:10 2,8 1,8   Kalm   991,1 93 0,80
04:15 2,8 1,8 1,9 Westen 0,3 991,1 93 0,80
04:20 2,8 1,8 5,6 Westen 5,0 991,4 93 0,60
04:25 2,7 1,7 16,7 ZW 9,0 991,4 93 0,80
04:30 2,7 1,7 5,6 WNW 2,1 991,3 93 1,00
04:35 2,7 1,7 3,7 WNW 1,1 991,3 93 1,00
04:40 2,8 1,8 5,6 WNW 2,1 991,3 93 1,00
04:45 2,8 1,8   Kalm   991,2 93 1,00
04:50 2,9 1,9   Kalm   991,2 93 1,00
04:55 3,0 2,0 9,3 ZW 5,6 991,4 93 1,00
05:00 3,1 2,1 1,9 ZW 0,2 991,5 93 1,00
05:05 3,1 2,2 18,5 Westen 10,1 991,5 94 1,00
05:10 3,5 2,6 18,5 Westen 10,8 991,5 94 1,20
05:15 3,8 2,9 18,5 Westen 12,1 991,5 94 1,00
05:20 4,0 2,9 25,9 Westen 16,3 991,6 93 1,00
05:25 4,0 2,9 24,1 Westen 17,1 991,7 93 0,60
05:30 3,9 2,8 13,0 WNW 6,9 991,8 92 0,20
05:35 3,9 2,8 22,2 Westen 11,6 991,8 92 0,20
05:40 3,9 2,7 16,7 Westen 8,5 991,9 92 0,20
05:45 3,9 2,7 20,4 Westen 10,0 992,0 92 0,20
05:50 3,9 2,8 18,5 Westen 10,1 992,0 92 0,20
05:55 4,0 2,7 14,8 WNW 7,6 992,1 91 0,20
06:00 3,9 2,6 18,5 Noorden 7,9 992,2 91 0,20
06:05 3,8 2,3 16,7 Westen 8,7 992,3 90 0,20
06:10 3,9 2,4 14,8 NO 6,3 992,3 90 0,20
06:15 3,9 2,4 13,0 NNW 5,0 992,4 90 0,20
06:20 3,8 2,3 11,1 NNW 5,3 992,4 90 0,40
06:25 3,8 2,3 9,3 NNW 6,1 992,5 90 0,40
06:30 3,7 2,2 3,7 WNW 2,4 992,5 90 0,40
06:35 3,7 2,2 5,6 Westen 3,9 992,6 90 0,40
06:40 3,7 2,3 5,6 WNW 3,4 992,6 91 0,40
06:45 3,7 2,3 5,6 NW 3,7 992,6 91 0,40
06:50 3,7 2,3 5,6 Westen 4,3 992,7 91 0,40
06:55 3,7 2,4 14,8 Westen 6,4 992,7 91 0,40
07:00 3,7 2,4 7,4 Westen 4,2 992,7 91 0,40
07:05 3,7 2,4 11,1 NW 5,0 992,8 91 0,40
07:10 3,7 2,4 14,8 WNW 6,8 992,9 91 0,20
07:15 3,7 2,4 8,0 NW 5,8 992,9 91 0,20
07:20 3,7 2,4 5,6 NW 2,4 993,0 91 -
07:25 3,8 2,4 5,6 WNW 2,3 993,1 91 -
07:30 3,8 2,5 7,4 NNW 3,7 993,1 91 -
07:35 3,9 2,6 13,0 Westen 3,1 993,2 91 -
07:40 3,9 2,6 14,8 NW 7,6 993,3 91 -
07:45 3,8 2,3 6,4 Oosten 1,1 993,4 90 -
07:50 3,8 2,3 5,6 WNW 2,4 993,4 90 -
07:55 3,7 2,2 5,6 WNW 2,6 993,4 90 -
08:00 3,7 2,2 5,6 ZW 2,9 993,5 90 -
08:05 3,7 2,2 5,6 ZW 1,6 993,7 90 -
08:10 3,7 2,2 5,6 WZW 3,1 993,8 90 -
08:15 3,7 2,2 7,4 WNW 4,3 993,9 90 -
08:20 3,7 2,4 5,6 WNW 3,4 993,9 91 -
08:25 3,8 2,4 5,6 WNW 2,3 994,0 91 -
08:30 3,9 2,6 19,3 WZW 12,1 994,0 91 -
08:35 4,2 2,7 13,0 WNW 6,1 994,1 90 -
08:40 4,4 2,7 16,7 NW 13,0 994,3 89 -
08:45 4,6 2,9 18,5 Westen 9,7 994,4 89 -
08:50 4,7 2,7 6,4 Westen 4,2 994,5 87 -
08:55 4,8 2,6 16,7 WNW 10,1 994,5 86 -
09:00 4,9 2,6 13,0 Westen 6,9 994,6 85 -
09:05 5,0 2,5 16,7 Westen 9,2 994,7 84 -
09:10 5,2 2,7 18,5 Westen 10,3 994,9 84 -
09:15 5,3 2,8 14,8 Westen 8,0 994,8 84 -
09:20 5,4 2,7 18,5 Westen 9,8 994,8 83 -
09:25 5,6 2,9 16,7 Westen 10,5 995,0 83 -
09:30 5,7 2,8 22,2 WNW 13,5 995,1 82 -
09:35 5,7 3,0 24,1 NNO 14,5 995,5 83 -
09:40 5,4 2,9 14,8 WNW 9,7 995,5 84 -
09:45 5,1 2,8 14,8 NW 8,0 995,7 85 -
09:50 5,0 2,8 14,8 NNO 6,3 995,6 86 -
09:55 4,9 2,9 13,0 Westen 6,3 995,7 87 -
10:00 4,8 2,8 18,5 WNW 11,1 995,7 87 -
10:05 4,9 3,1 20,4 ZZW 14,8 995,8 88 -
10:10 5,0 3,2 11,1 NW 7,2 995,9 88 -
10:15 5,1 3,1 14,8 WZW 7,1 996,0 87 -
10:20 5,2 3,1 16,7 ZW 10,9 996,2 86 -
10:25 5,3 2,8 16,7 NW 11,1 996,1 84 -
10:30 5,5 2,8 11,1 Zuiden 7,2 996,2 83 -
10:35 5,7 2,9 14,8 Westen 6,3 996,2 82 -
10:40 6,1 3,3 25,9 Westen 13,7 996,5 82 -
10:45 5,6 2,6 11,1 WZW 5,8 996,4 81 0,60
10:50 5,2 2,7 14,8 NW 6,3 996,5 84 0,80
10:55 5,1 2,8 11,1 WNW 4,5 996,7 85 0,80
11:00 5,1 2,9 5,6 NW 2,9 996,7 86 0,80
11:05 5,0 3,0 7,4 Noorden 3,7 996,8 87 0,80
11:10 4,9 2,9 7,4 NW 3,2 996,9 87 0,80
11:15 4,8 2,8 7,4 NW 2,3 997,0 87 0,80
11:20 4,9 3,1 3,7 WNW 1,8 997,0 88 0,80
11:25 5,2 3,5 13,0 WNW 4,3 997,1 89 0,80
11:30 5,5 4,0 18,5 NW 9,7 997,0 90 0,80
11:35 5,8 4,1 9,3 ZW 4,0 997,2 89 0,80
11:40 5,7 3,5 25,9 Westen 17,5 997,1 86 0,80
11:45 5,6 2,6 24,1 Westen 15,8 997,4 81 0,20
11:50 5,9 2,9 31,5 Westen 18,5 997,3 81 -
11:55 5,9 2,9 27,8 WZW 18,7 997,5 81 -
12:00 5,7 2,7 24,1 WNW 15,9 997,5 81 -
12:05 5,4 2,4 25,9 ZW 17,1 997,6 81 -
12:10 5,6 2,9 22,2 Westen 13,8 997,7 83 -
12:15 5,8 3,3 13,0 Westen 8,2 997,8 84 -
12:20 6,1 3,7 22,5 WNW 13,5 997,7 85 -
12:25 6,3 3,3 31,5 WZW 15,1 997,8 81 -
12:30 6,4 3,2 32,2 Westen 16,3 997,9 80 -
12:35 6,3 3,1 24,1 NW 16,1 998,0 80 -
12:40 6,1 3,1 18,5 ZW 11,7 998,0 81 -
12:45 5,8 2,8 20,4 Westen 11,3 998,2 81 0,20
12:50 5,6 2,9 16,7 Westen 9,3 998,1 83 0,20
12:55 5,3 2,7 18,5 WNW 10,9 998,1 83 0,20
13:00 5,2 2,7 13,0 Westen 8,7 998,2 84 0,20
13:05 5,3 2,9 25,9 Westen 13,5 998,2 85 0,20
13:10 5,3 2,8 22,2 WNW 15,6 998,4 84 0,20
13:15 5,4 2,9 27,8 Westen 15,9 998,4 84 0,20
13:20 5,7 3,4 29,6 ZW 17,9 998,4 85 0,20
13:25 6,1 3,6 25,9 WNW 19,1 998,5 84 0,20
13:30 6,5 3,7 24,1 NW 16,6 998,5 82 0,20
13:35 6,8 3,7 16,7 WNW 11,3 998,6 81 0,20
13:40 7,1 4,1 20,4 NW 13,5 998,5 81 0,20
13:45 7,2 3,8 27,8 ZW 17,5 998,6 79 -
13:50 6,8 3,6 27,8 WNW 21,1 998,7 80 -
Dagelijkse Samenvatting Woensdag 26 februari 2020
Tijd Temp. ( °C ) Dew pt. ( °C ) Wind ( km/h ) van Windvlaag ( km/h ) Luchtdruk ( hPa ) Humid.( % ) Rainrate ( cm )
Hoog7,2 4,1 32,2 Westen ( 687/1966 ) 21,1 998,7 94 2,60
Gemiddeld4,2 2,6 11,8 Westen #40/167 6,5 993,6 89 1,60
Laag2,5 1,5 -   0,0 990,5 79 -
Dagelijkse Tabular details for Woensdag 26 februari 2020
Tijd Temp. ( °C ) Dew pt. ( °C ) Wind ( km/h ) van Windvlaag ( km/h ) Luchtdruk ( hPa ) Humid.( % ) Rainrate ( cm )
00:00 4,1 2,7 6,4 ZZW 2,3 990,9 91 0,20
00:05 4,1 2,7 5,6 ZZW 3,9 990,9 91 0,40
00:10 4,1 2,7 1,9 ZZW 0,2 990,8 91 0,60
00:15 4,1 2,7 3,7 ZZW 1,0 990,8 91 0,80
00:20 4,1 2,7 5,6 ZZW 2,7 990,8 91 0,80
00:25 4,1 2,7 3,7 ZZW 1,6 990,7 91 1,00
00:30 4,1 2,7 5,6 ZZW 2,7 990,7 91 1,20
00:35 4,0 2,7 1,9 ZZW 0,2 990,7 91 1,40
00:40 4,0 2,7 3,7 ZZW 1,8 990,7 91 1,60
00:45 3,9 2,8 1,9 ZZO 0,5 990,8 92 -
00:50 3,8 2,7 3,7 Zuiden 2,3 990,9 92 0,20
00:55 3,7 2,3   Kalm   990,8 91 0,60
01:00 3,5 2,2 5,6 Zuiden 2,1 990,8 91 2,60
01:05 3,3 2,0 1,9 ZZO 0,2 990,7 91 2,60
01:10 3,3 2,1 5,6 ZZO 3,2 990,6 92 2,40
01:15 3,3 2,1 3,7 ZZO 1,9 990,5 92 2,20
01:20 3,3 2,1 1,9 ZZO 0,2 990,7 92 2,20
01:25 3,3 2,1 6,4 ZZO 1,6 990,6 92 2,00
01:30 3,3 2,2 5,6 ZZO 4,8 990,7 92 2,00
01:35 3,4 2,2 3,7 ZZO 2,6 990,8 92 1,80
01:40 3,4 2,2 7,4 ZZO 2,1 990,6 92 1,60
01:45 3,4 2,2 3,7 ZZO 1,4 990,6 92 1,20
01:50 3,4 2,4 1,9 ZZO 0,5 990,5 93 1,00
01:55 3,4 2,4 1,9 ZZO 0,2 990,6 93 0,60
02:00 3,3 2,3 5,6 ZZO 1,8 990,7 93 0,40
02:05 3,4 2,4 3,7 ZZO 1,6 990,5 93 0,20
02:10 3,3 2,3 1,9 ZZO 0,5 990,5 93 0,20
02:15 3,3 2,3 5,6 ZZO 2,1 990,5 93 0,20
02:20 3,3 2,3 5,6 ZZO 1,8 990,5 93 0,20
02:25 3,3 2,3 5,6 ZZO 1,9 990,6 93 0,20
02:30 3,2 2,2 5,6 ZZO 3,4 990,7 93 -
02:35 3,2 2,2 5,6 ZO 2,7 990,7 93 -
02:40 3,2 2,2 3,7 ZO 1,3 990,8 93 -
02:45 3,2 2,3 1,9 ZO 0,2 990,8 94 -
02:50 3,2 2,3 9,3 WNW 5,0 990,9 94 0,20
02:55 3,0 2,0 5,6 WZW 2,4 990,8 93 0,60
03:00 2,9 1,9 5,6 NW 2,1 990,9 93 0,80
03:05 2,8 1,8 13,0 NNW 4,3 991,0 93 1,00
03:10 2,6 1,6 7,4 WNW 3,4 991,0 93 1,20
03:15 2,5 1,5 9,3 NW 3,4 991,0 93 1,40
03:20 2,5 1,5 5,6 WNW 3,5 990,9 93 1,60
03:25 2,5 1,5 9,3 NW 5,0 990,9 93 1,80
03:30 2,6 1,6 5,6 NW 2,7 990,8 93 2,00
03:35 2,6 1,6 5,6 NW 2,3 990,8 93 2,00
03:40 2,7 1,7 1,9 NW 0,2 990,8 93 2,00
03:45 2,8 1,9 5,6 NW 2,3 990,8 94 2,00
03:50 2,8 1,9 5,6 NW 2,3 990,8 94 1,80
03:55 2,8 1,8 7,4 Noorden 3,5 990,9 93 1,40
04:00 2,9 1,9 9,3 WNW 2,9 991,1 93 1,20
04:05 2,9 1,9 3,7 Westen 1,3 991,1 93 1,00
04:10 2,8 1,8   Kalm   991,1 93 0,80
04:15 2,8 1,8 1,9 Westen 0,3 991,1 93 0,80
04:20 2,8 1,8 5,6 Westen 5,0 991,4 93 0,60
04:25 2,7 1,7 16,7 ZW 9,0 991,4 93 0,80
04:30 2,7 1,7 5,6 WNW 2,1 991,3 93 1,00
04:35 2,7 1,7 3,7 WNW 1,1 991,3 93 1,00
04:40 2,8 1,8 5,6 WNW 2,1 991,3 93 1,00
04:45 2,8 1,8   Kalm   991,2 93 1,00
04:50 2,9 1,9   Kalm   991,2 93 1,00
04:55 3,0 2,0 9,3 ZW 5,6 991,4 93 1,00
05:00 3,1 2,1 1,9 ZW 0,2 991,5 93 1,00
05:05 3,1 2,2 18,5 Westen 10,1 991,5 94 1,00
05:10 3,5 2,6 18,5 Westen 10,8 991,5 94 1,20
05:15 3,8 2,9 18,5 Westen 12,1 991,5 94 1,00
05:20 4,0 2,9 25,9 Westen 16,3 991,6 93 1,00
05:25 4,0 2,9 24,1 Westen 17,1 991,7 93 0,60
05:30 3,9 2,8 13,0 WNW 6,9 991,8 92 0,20
05:35 3,9 2,8 22,2 Westen 11,6 991,8 92 0,20
05:40 3,9 2,7 16,7 Westen 8,5 991,9 92 0,20
05:45 3,9 2,7 20,4 Westen 10,0 992,0 92 0,20
05:50 3,9 2,8 18,5 Westen 10,1 992,0 92 0,20
05:55 4,0 2,7 14,8 WNW 7,6 992,1 91 0,20
06:00 3,9 2,6 18,5 Noorden 7,9 992,2 91 0,20
06:05 3,8 2,3 16,7 Westen 8,7 992,3 90 0,20
06:10 3,9 2,4 14,8 NO 6,3 992,3 90 0,20
06:15 3,9 2,4 13,0 NNW 5,0 992,4 90 0,20
06:20 3,8 2,3 11,1 NNW 5,3 992,4 90 0,40
06:25 3,8 2,3 9,3 NNW 6,1 992,5 90 0,40
06:30 3,7 2,2 3,7 WNW 2,4 992,5 90 0,40
06:35 3,7 2,2 5,6 Westen 3,9 992,6 90 0,40
06:40 3,7 2,3 5,6 WNW 3,4 992,6 91 0,40
06:45 3,7 2,3 5,6 NW 3,7 992,6 91 0,40
06:50 3,7 2,3 5,6 Westen 4,3 992,7 91 0,40
06:55 3,7 2,4 14,8 Westen 6,4 992,7 91 0,40
07:00 3,7 2,4 7,4 Westen 4,2 992,7 91 0,40
07:05 3,7 2,4 11,1 NW 5,0 992,8 91 0,40
07:10 3,7 2,4 14,8 WNW 6,8 992,9 91 0,20
07:15 3,7 2,4 8,0 NW 5,8 992,9 91 0,20
07:20 3,7 2,4 5,6 NW 2,4 993,0 91 -
07:25 3,8 2,4 5,6 WNW 2,3 993,1 91 -
07:30 3,8 2,5 7,4 NNW 3,7 993,1 91 -
07:35 3,9 2,6 13,0 Westen 3,1 993,2 91 -
07:40 3,9 2,6 14,8 NW 7,6 993,3 91 -
07:45 3,8 2,3 6,4 Oosten 1,1 993,4 90 -
07:50 3,8 2,3 5,6 WNW 2,4 993,4 90 -
07:55 3,7 2,2 5,6 WNW 2,6 993,4 90 -
08:00 3,7 2,2 5,6 ZW 2,9 993,5 90 -
08:05 3,7 2,2 5,6 ZW 1,6 993,7 90 -
08:10 3,7 2,2 5,6 WZW 3,1 993,8 90 -
08:15 3,7 2,2 7,4 WNW 4,3 993,9 90 -
08:20 3,7 2,4 5,6 WNW 3,4 993,9 91 -
08:25 3,8 2,4 5,6 WNW 2,3 994,0 91 -
08:30 3,9 2,6 19,3 WZW 12,1 994,0 91 -
08:35 4,2 2,7 13,0 WNW 6,1 994,1 90 -
08:40 4,4 2,7 16,7 NW 13,0 994,3 89 -
08:45 4,6 2,9 18,5 Westen 9,7 994,4 89 -
08:50 4,7 2,7 6,4 Westen 4,2 994,5 87 -
08:55 4,8 2,6 16,7 WNW 10,1 994,5 86 -
09:00 4,9 2,6 13,0 Westen 6,9 994,6 85 -
09:05 5,0 2,5 16,7 Westen 9,2 994,7 84 -
09:10 5,2 2,7 18,5 Westen 10,3 994,9 84 -
09:15 5,3 2,8 14,8 Westen 8,0 994,8 84 -
09:20 5,4 2,7 18,5 Westen 9,8 994,8 83 -
09:25 5,6 2,9 16,7 Westen 10,5 995,0 83 -
09:30 5,7 2,8 22,2 WNW 13,5 995,1 82 -
09:35 5,7 3,0 24,1 NNO 14,5 995,5 83 -
09:40 5,4 2,9 14,8 WNW 9,7 995,5 84 -
09:45 5,1 2,8 14,8 NW 8,0 995,7 85 -
09:50 5,0 2,8 14,8 NNO 6,3 995,6 86 -
09:55 4,9 2,9 13,0 Westen 6,3 995,7 87 -
10:00 4,8 2,8 18,5 WNW 11,1 995,7 87 -
10:05 4,9 3,1 20,4 ZZW 14,8 995,8 88 -
10:10 5,0 3,2 11,1 NW 7,2 995,9 88 -
10:15 5,1 3,1 14,8 WZW 7,1 996,0 87 -
10:20 5,2 3,1 16,7 ZW 10,9 996,2 86 -
10:25 5,3 2,8 16,7 NW 11,1 996,1 84 -
10:30 5,5 2,8 11,1 Zuiden 7,2 996,2 83 -
10:35 5,7 2,9 14,8 Westen 6,3 996,2 82 -
10:40 6,1 3,3 25,9 Westen 13,7 996,5 82 -
10:45 5,6 2,6 11,1 WZW 5,8 996,4 81 0,60
10:50 5,2 2,7 14,8 NW 6,3 996,5 84 0,80
10:55 5,1 2,8 11,1 WNW 4,5 996,7 85 0,80
11:00 5,1 2,9 5,6 NW 2,9 996,7 86 0,80
11:05 5,0 3,0 7,4 Noorden 3,7 996,8 87 0,80
11:10 4,9 2,9 7,4 NW 3,2 996,9 87 0,80
11:15 4,8 2,8 7,4 NW 2,3 997,0 87 0,80
11:20 4,9 3,1 3,7 WNW 1,8 997,0 88 0,80
11:25 5,2 3,5 13,0 WNW 4,3 997,1 89 0,80
11:30 5,5 4,0 18,5 NW 9,7 997,0 90 0,80
11:35 5,8 4,1 9,3 ZW 4,0 997,2 89 0,80
11:40 5,7 3,5 25,9 Westen 17,5 997,1 86 0,80
11:45 5,6 2,6 24,1 Westen 15,8 997,4 81 0,20
11:50 5,9 2,9 31,5 Westen 18,5 997,3 81 -
11:55 5,9 2,9 27,8 WZW 18,7 997,5 81 -
12:00 5,7 2,7 24,1 WNW 15,9 997,5 81 -
12:05 5,4 2,4 25,9 ZW 17,1 997,6 81 -
12:10 5,6 2,9 22,2 Westen 13,8 997,7 83 -
12:15 5,8 3,3 13,0 Westen 8,2 997,8 84 -
12:20 6,1 3,7 22,5 WNW 13,5 997,7 85 -
12:25 6,3 3,3 31,5 WZW 15,1 997,8 81 -
12:30 6,4 3,2 32,2 Westen 16,3 997,9 80 -
12:35 6,3 3,1 24,1 NW 16,1 998,0 80 -
12:40 6,1 3,1 18,5 ZW 11,7 998,0 81 -
12:45 5,8 2,8 20,4 Westen 11,3 998,2 81 0,20
12:50 5,6 2,9 16,7 Westen 9,3 998,1 83 0,20
12:55 5,3 2,7 18,5 WNW 10,9 998,1 83 0,20
13:00 5,2 2,7 13,0 Westen 8,7 998,2 84 0,20
13:05 5,3 2,9 25,9 Westen 13,5 998,2 85 0,20
13:10 5,3 2,8 22,2 WNW 15,6 998,4 84 0,20
13:15 5,4 2,9 27,8 Westen 15,9 998,4 84 0,20
13:20 5,7 3,4 29,6 ZW 17,9 998,4 85 0,20
13:25 6,1 3,6 25,9 WNW 19,1 998,5 84 0,20
13:30 6,5 3,7 24,1 NW 16,6 998,5 82 0,20
13:35 6,8 3,7 16,7 WNW 11,3 998,6 81 0,20
13:40 7,1 4,1 20,4 NW 13,5 998,5 81 0,20
13:45 7,2 3,8 27,8 ZW 17,5 998,6 79 -
13:50 6,8 3,6 27,8 WNW 21,1 998,7 80 -

Download your copy of this data-set  here

Our weather-data as stored at Weather Underground. Script ontwikkeld door Jim McMurry. Aangepast voor de template door Leuven-Template.eu

U vindt ons ook hier:

Het Weer Aktueel

European Weather Network

Weather Underground

Benelux Weer Netwerk

Citizen Weather Observer Program (CWOP)

Apparatuur in gebruik:

Weerstation
Davis VP2

Weerprogramma
Weather Display

Weercomputer
My Computer

Webleverancier
WeservIT

Davis VP2

Weather Display

My Computer

WeservIT